createdAt,value
2022-11-21T00:00:09.646Z,4.9
2022-11-21T00:02:08.607Z,5.0
2022-11-21T00:06:08.012Z,5.2
2022-11-21T00:10:07.531Z,4.9
2022-11-21T00:12:06.649Z,5.0
2022-11-21T00:14:06.323Z,5.0
2022-11-21T00:18:06.219Z,5.0
2022-11-21T00:22:04.733Z,4.8
2022-11-21T00:24:04.823Z,4.9
2022-11-21T00:26:04.803Z,4.9
2022-11-21T00:28:04.488Z,4.9
2022-11-21T00:30:03.523Z,4.9
2022-11-21T00:32:02.725Z,4.9
2022-11-21T00:36:07.008Z,4.9
2022-11-21T00:38:01.489Z,4.8
2022-11-21T00:40:01.471Z,4.6
2022-11-21T00:42:01.132Z,4.6
2022-11-21T00:44:00.667Z,4.6
2022-11-21T00:46:01.688Z,4.6
2022-11-21T00:47:59.658Z,4.7
2022-11-21T00:49:59.118Z,4.7
2022-11-21T00:53:58.354Z,4.4
2022-11-21T00:55:58.321Z,4.4
2022-11-21T00:57:57.483Z,4.4
2022-11-21T00:59:57.288Z,4.4
2022-11-21T01:01:56.922Z,4.5
2022-11-21T01:03:57.128Z,4.6
2022-11-21T01:07:55.610Z,4.7
2022-11-21T01:09:55.044Z,4.7
2022-11-21T01:11:54.788Z,4.6
2022-11-21T01:15:54.021Z,4.6
2022-11-21T01:17:53.455Z,4.5
2022-11-21T01:19:53.036Z,4.5
2022-11-21T01:21:52.573Z,4.6
2022-11-21T01:23:52.895Z,4.5
2022-11-21T01:25:52.358Z,4.5
2022-11-21T01:27:51.513Z,4.3
2022-11-21T01:29:52.101Z,4.2
2022-11-21T01:31:50.837Z,4.3
2022-11-21T01:33:50.699Z,4.3
2022-11-21T01:35:49.818Z,4.2
2022-11-21T01:39:49.341Z,4.2
2022-11-21T01:41:48.601Z,4.3
2022-11-21T01:43:49.255Z,4.2
2022-11-21T01:45:54.338Z,4.1
2022-11-21T01:47:48.064Z,4.2
2022-11-21T01:49:47.834Z,4.2
2022-11-21T01:51:53.736Z,4.1
2022-11-21T01:53:51.920Z,4.3
2022-11-21T01:55:45.857Z,4.3
2022-11-21T01:57:48.620Z,4.3
2022-11-21T02:01:45.907Z,4.3
2022-11-21T02:03:47.592Z,4.2
2022-11-21T02:05:44.181Z,4.3
2022-11-21T02:11:48.535Z,4.4
2022-11-21T02:13:42.396Z,4.4
2022-11-21T02:15:41.836Z,4.4
2022-11-21T02:17:41.244Z,4.5
2022-11-21T02:19:46.528Z,4.5
2022-11-21T02:21:47.317Z,4.6
2022-11-21T02:23:47.411Z,4.6
2022-11-21T02:25:41.899Z,4.5
2022-11-21T02:29:39.757Z,4.5
2022-11-21T02:31:39.044Z,4.5
2022-11-21T02:33:38.560Z,4.6
2022-11-21T02:35:38.516Z,4.6
2022-11-21T02:37:37.462Z,4.6
2022-11-21T02:39:37.104Z,4.6
2022-11-21T02:43:41.870Z,4.7
2022-11-21T02:45:39.244Z,4.6
2022-11-21T02:47:37.873Z,4.7
2022-11-21T02:49:44.050Z,4.7
2022-11-21T02:53:34.567Z,4.7
2022-11-21T02:55:34.580Z,4.8
2022-11-21T02:57:33.456Z,4.7
2022-11-21T02:59:32.840Z,4.8
2022-11-21T03:01:32.546Z,4.8
2022-11-21T03:03:32.012Z,4.8
2022-11-21T03:05:31.786Z,4.8
2022-11-21T03:07:31.347Z,4.9
2022-11-21T03:09:30.899Z,4.9
2022-11-21T03:13:30.332Z,4.9
2022-11-21T03:15:32.269Z,5.0
2022-11-21T03:17:29.600Z,5.0
2022-11-21T03:19:29.719Z,5.0
2022-11-21T03:21:28.627Z,5.0
2022-11-21T03:23:28.089Z,5.0
2022-11-21T03:25:28.036Z,5.0
2022-11-21T03:27:27.438Z,4.9
2022-11-21T03:29:26.955Z,5.0
2022-11-21T03:31:26.617Z,5.0
2022-11-21T03:35:25.887Z,4.9
2022-11-21T03:37:25.518Z,4.9
2022-11-21T03:39:25.252Z,5.0
2022-11-21T03:41:28.758Z,4.9
2022-11-21T03:43:24.800Z,4.9
2022-11-21T03:45:24.348Z,4.9
2022-11-21T03:49:23.272Z,4.9
2022-11-21T03:51:23.194Z,4.9
2022-11-21T03:53:22.251Z,4.9
2022-11-21T03:55:22.094Z,4.9
2022-11-21T03:57:21.555Z,4.9
2022-11-21T03:59:21.092Z,4.9
2022-11-21T04:01:21.935Z,4.9
2022-11-21T04:03:20.619Z,4.8
2022-11-21T04:05:20.260Z,4.8
2022-11-21T04:07:19.656Z,4.8
2022-11-21T04:09:19.339Z,4.8
2022-11-21T04:11:20.983Z,4.8
2022-11-21T04:13:19.087Z,4.7
2022-11-21T04:17:17.634Z,4.6
2022-11-21T04:19:17.162Z,4.7
2022-11-21T04:21:16.913Z,4.6
2022-11-21T04:23:16.800Z,4.6
2022-11-21T04:25:16.561Z,4.5
2022-11-21T04:29:15.420Z,4.6
2022-11-21T04:31:14.757Z,4.6
2022-11-21T04:33:16.715Z,4.5
2022-11-21T04:35:14.043Z,4.5
2022-11-21T04:37:13.613Z,4.5
2022-11-21T04:39:13.161Z,4.5
2022-11-21T04:41:12.791Z,4.5
2022-11-21T04:45:14.705Z,4.6
2022-11-21T04:47:11.959Z,4.7
2022-11-21T04:49:11.878Z,4.7
2022-11-21T04:51:11.734Z,4.7
2022-11-21T04:53:10.338Z,4.6
2022-11-21T04:55:09.873Z,4.6
2022-11-21T04:57:09.670Z,4.7
2022-11-21T04:59:11.170Z,4.6
2022-11-21T05:01:08.909Z,4.7
2022-11-21T05:03:08.256Z,4.6
2022-11-21T05:05:08.190Z,4.6
2022-11-21T05:07:07.633Z,4.6
2022-11-21T05:09:07.245Z,4.6
2022-11-21T05:11:17.176Z,4.5
2022-11-21T05:13:16.067Z,4.5
2022-11-21T05:15:06.290Z,4.4
2022-11-21T05:19:05.084Z,4.5
2022-11-21T05:23:04.679Z,4.5
2022-11-21T05:25:05.158Z,4.5
2022-11-21T05:27:04.315Z,4.5
2022-11-21T05:29:03.187Z,4.5
2022-11-21T05:33:02.765Z,4.5
2022-11-21T05:35:02.497Z,4.5
2022-11-21T05:37:02.362Z,4.5
2022-11-21T05:39:01.238Z,4.5
2022-11-21T05:41:00.744Z,4.5
2022-11-21T05:43:10.149Z,4.5
2022-11-21T05:45:00.076Z,4.5
2022-11-21T05:46:59.618Z,4.5
2022-11-21T05:48:59.329Z,4.6
2022-11-21T05:50:59.269Z,4.5
2022-11-21T05:53:00.766Z,4.5
2022-11-21T05:54:58.303Z,4.5
2022-11-21T05:58:58.514Z,4.6
2022-11-21T06:00:59.879Z,4.6
2022-11-21T06:04:56.069Z,4.4
2022-11-21T06:06:55.733Z,4.4
2022-11-21T06:08:55.352Z,4.3
2022-11-21T06:12:54.650Z,4.3
2022-11-21T06:14:54.277Z,4.3
2022-11-21T06:16:53.866Z,4.4
2022-11-21T06:18:58.133Z,4.3
2022-11-21T06:20:53.495Z,4.4
2022-11-21T06:22:53.043Z,4.3
2022-11-21T06:24:52.673Z,4.4
2022-11-21T06:26:51.791Z,4.3
2022-11-21T06:28:52.054Z,4.3
2022-11-21T06:30:51.133Z,4.3
2022-11-21T06:32:50.685Z,4.2
2022-11-21T06:34:50.125Z,4.1
2022-11-21T06:36:50.421Z,4.1
2022-11-21T06:38:49.583Z,3.9
2022-11-21T06:40:49.304Z,3.8
2022-11-21T06:42:48.996Z,3.8
2022-11-21T06:44:48.660Z,3.8
2022-11-21T06:46:51.262Z,3.6
2022-11-21T06:48:47.447Z,3.5
2022-11-21T06:50:47.001Z,3.6
2022-11-21T06:52:46.669Z,3.6
2022-11-21T06:56:45.921Z,3.5
2022-11-21T06:58:45.380Z,3.4
2022-11-21T07:00:45.178Z,3.3
2022-11-21T07:02:44.512Z,3.3
2022-11-21T07:04:44.269Z,3.3
2022-11-21T07:06:44.060Z,3.2
2022-11-21T07:08:44.083Z,3.3
2022-11-21T07:12:52.261Z,3.2
2022-11-21T07:14:42.009Z,3.1
2022-11-21T07:16:41.686Z,3.0
2022-11-21T07:18:41.666Z,3.2
2022-11-21T07:20:40.960Z,3.0
2022-11-21T07:22:40.354Z,3.1
2022-11-21T07:24:40.085Z,3.1
2022-11-21T07:28:39.596Z,3.0
2022-11-21T07:30:39.249Z,3.0
2022-11-21T07:34:37.871Z,3.1
2022-11-21T07:36:37.746Z,3.0
2022-11-21T07:38:37.009Z,3.0
2022-11-21T07:40:36.565Z,2.9
2022-11-21T07:42:36.126Z,3.0
2022-11-21T07:44:35.691Z,3.0
2022-11-21T07:46:35.309Z,2.9
2022-11-21T07:48:35.078Z,3.0
2022-11-21T07:50:35.159Z,2.9
2022-11-21T07:52:34.621Z,3.0
2022-11-21T07:54:33.482Z,3.0
2022-11-21T07:58:32.909Z,3.0
2022-11-21T08:00:35.351Z,3.1
2022-11-21T08:02:31.918Z,3.2
2022-11-21T08:04:31.513Z,3.1
2022-11-21T08:06:31.097Z,3.1
2022-11-21T08:08:31.106Z,3.1
2022-11-21T08:10:30.523Z,3.2
2022-11-21T08:12:31.884Z,3.2
2022-11-21T08:14:29.340Z,3.2
2022-11-21T08:16:31.872Z,3.2
2022-11-21T08:18:28.664Z,3.3
2022-11-21T08:20:27.961Z,3.2
2022-11-21T08:24:27.157Z,3.3
2022-11-21T08:28:26.417Z,3.3
2022-11-21T08:30:25.975Z,3.3
2022-11-21T08:32:26.035Z,3.4
2022-11-21T08:36:24.536Z,3.3
2022-11-21T08:38:24.098Z,3.3
2022-11-21T08:40:24.125Z,3.4
2022-11-21T08:42:23.426Z,3.4
2022-11-21T08:44:22.724Z,3.5
2022-11-21T08:46:26.332Z,3.4
2022-11-21T08:48:21.944Z,3.4
2022-11-21T08:50:22.929Z,3.5
2022-11-21T08:52:21.253Z,3.6
2022-11-21T08:56:20.842Z,3.6
2022-11-21T08:58:19.790Z,3.6
2022-11-21T09:00:19.656Z,3.6
2022-11-21T09:02:18.869Z,3.7
2022-11-21T09:04:18.514Z,3.7
2022-11-21T09:06:18.010Z,3.8
2022-11-21T09:08:17.756Z,3.9
2022-11-21T09:10:17.261Z,3.9
2022-11-21T09:12:17.174Z,4.0
2022-11-21T09:14:27.164Z,4.1
2022-11-21T09:18:15.521Z,4.2
2022-11-21T09:20:15.242Z,4.2
2022-11-21T09:22:14.546Z,4.3
2022-11-21T09:24:14.371Z,4.4
2022-11-21T09:26:13.711Z,4.4
2022-11-21T09:28:14.290Z,4.4
2022-11-21T09:30:13.528Z,4.3
2022-11-21T09:32:12.496Z,4.4
2022-11-21T09:34:12.085Z,4.5
2022-11-21T09:36:12.023Z,4.6
2022-11-21T09:38:11.629Z,4.6
2022-11-21T09:42:30.253Z,4.8
2022-11-21T09:46:13.078Z,4.9
2022-11-21T09:48:12.460Z,4.9
2022-11-21T09:50:28.512Z,4.9
2022-11-21T09:52:12.668Z,5.0
2022-11-21T09:54:17.429Z,5.0
2022-11-21T09:56:12.638Z,5.0
2022-11-21T09:58:18.680Z,5.1
2022-11-21T10:02:14.723Z,5.3
2022-11-21T10:04:06.330Z,5.4
2022-11-21T10:06:18.205Z,5.4
2022-11-21T10:12:27.897Z,5.5
2022-11-21T10:14:17.576Z,5.4
2022-11-21T10:16:13.197Z,5.6
2022-11-21T10:18:20.056Z,5.5
2022-11-21T10:20:16.423Z,5.6
2022-11-21T10:22:22.701Z,5.8
2022-11-21T10:24:19.690Z,5.9
2022-11-21T10:26:14.260Z,5.9
2022-11-21T10:28:07.997Z,5.9
2022-11-21T10:30:04.353Z,5.9
2022-11-21T10:32:03.684Z,6.2
2022-11-21T10:36:06.465Z,6.0
2022-11-21T10:38:00.987Z,6.0
2022-11-21T10:40:13.164Z,5.9
2022-11-21T10:44:13.195Z,6.0
2022-11-21T10:47:58.243Z,6.2
2022-11-21T10:50:05.655Z,6.3
2022-11-21T10:54:14.979Z,6.3
2022-11-21T10:55:59.795Z,6.2
2022-11-21T11:00:01.016Z,6.1
2022-11-21T11:01:57.927Z,6.1
2022-11-21T11:04:26.002Z,6.0
2022-11-21T11:08:06.229Z,5.9
2022-11-21T11:10:13.753Z,6.1
2022-11-21T11:12:03.823Z,6.1
2022-11-21T11:13:56.768Z,6.1
2022-11-21T11:15:58.619Z,6.1
2022-11-21T11:17:56.159Z,6.0
2022-11-21T11:20:01.460Z,6.2
2022-11-21T11:21:51.421Z,6.3
2022-11-21T11:23:52.315Z,6.3
2022-11-21T11:25:52.571Z,6.3
2022-11-21T11:27:50.058Z,6.2
2022-11-21T11:29:50.774Z,6.2
2022-11-21T11:33:52.520Z,6.4
2022-11-21T11:35:49.174Z,6.3
2022-11-21T11:37:59.899Z,6.4
2022-11-21T11:39:58.790Z,6.3
2022-11-21T11:44:07.028Z,6.4
2022-11-21T11:46:14.250Z,6.5
2022-11-21T11:47:54.747Z,6.5
2022-11-21T11:50:01.347Z,6.4
2022-11-21T11:51:52.468Z,6.5
2022-11-21T11:53:51.911Z,6.6
2022-11-21T11:57:49.532Z,6.7
2022-11-21T11:59:51.353Z,6.7
2022-11-21T12:01:50.733Z,6.7
2022-11-21T12:03:56.511Z,6.6
2022-11-21T12:05:52.720Z,6.8
2022-11-21T12:08:39.407Z,6.8
2022-11-21T12:09:50.488Z,6.8
2022-11-21T12:12:00.618Z,6.9
2022-11-21T12:15:49.740Z,7.0
2022-11-21T12:17:47.420Z,6.9
2022-11-21T12:19:41.046Z,7.1
2022-11-21T12:21:40.654Z,7.0
2022-11-21T12:23:47.036Z,7.1
2022-11-21T12:25:49.735Z,7.1
2022-11-21T12:27:41.589Z,7.2
2022-11-21T12:29:49.907Z,7.2
2022-11-21T12:31:56.826Z,7.2
2022-11-21T12:33:48.285Z,7.1
2022-11-21T12:35:53.779Z,7.1
2022-11-21T12:37:47.216Z,7.2
2022-11-21T12:41:53.262Z,7.3
2022-11-21T12:43:43.655Z,7.3
2022-11-21T12:45:40.082Z,7.2
2022-11-21T12:48:05.409Z,7.2
2022-11-21T12:53:52.988Z,7.2
2022-11-21T12:57:49.377Z,7.3
2022-11-21T12:59:46.505Z,7.2
2022-11-21T13:01:42.324Z,7.3
2022-11-21T13:03:46.531Z,7.2
2022-11-21T13:05:39.513Z,7.2
2022-11-21T13:07:32.913Z,7.2
2022-11-21T13:09:38.403Z,7.3
2022-11-21T13:11:53.816Z,7.3
2022-11-21T13:13:35.725Z,7.4
2022-11-21T13:15:38.556Z,7.4
2022-11-21T13:17:43.112Z,7.5
2022-11-21T13:19:36.864Z,7.5
2022-11-21T13:21:40.905Z,7.5
2022-11-21T13:23:38.521Z,7.5
2022-11-21T13:25:45.271Z,7.6
2022-11-21T13:27:38.148Z,7.6
2022-11-21T13:29:28.937Z,7.7
2022-11-21T13:31:30.742Z,7.6
2022-11-21T13:35:47.502Z,7.6
2022-11-21T13:37:47.404Z,7.6
2022-11-21T13:41:56.157Z,7.6
2022-11-21T13:43:33.381Z,7.6
2022-11-21T13:45:37.449Z,7.5
2022-11-21T13:47:45.223Z,7.6
2022-11-21T13:49:33.870Z,7.5
2022-11-21T13:55:38.520Z,7.6
2022-11-21T13:57:37.369Z,7.5
2022-11-21T13:59:39.473Z,7.5
2022-11-21T14:01:43.005Z,7.5
2022-11-21T14:03:39.434Z,7.4
2022-11-21T14:05:42.235Z,7.4
2022-11-21T14:07:25.527Z,7.4
2022-11-21T14:09:26.478Z,7.4
2022-11-21T14:11:32.696Z,7.4
2022-11-21T14:13:27.490Z,7.3
2022-11-21T14:15:27.945Z,7.4
2022-11-21T14:17:33.716Z,7.3
2022-11-21T14:19:20.376Z,7.4
2022-11-21T14:23:20.874Z,7.4
2022-11-21T14:25:22.228Z,7.3
2022-11-21T14:27:26.650Z,7.3
2022-11-21T14:29:21.724Z,7.3
2022-11-21T14:31:18.610Z,7.2
2022-11-21T14:33:23.198Z,7.3
2022-11-21T14:35:20.526Z,7.3
2022-11-21T14:39:36.559Z,7.3
2022-11-21T14:41:28.330Z,7.3
2022-11-21T14:45:18.748Z,7.3
2022-11-21T14:47:24.697Z,7.3
2022-11-21T14:49:20.993Z,7.3
2022-11-21T14:51:17.199Z,7.3
2022-11-21T14:55:31.705Z,7.3
2022-11-21T14:57:21.323Z,7.3
2022-11-21T14:59:22.071Z,7.3
2022-11-21T15:01:20.670Z,7.3
2022-11-21T15:03:18.976Z,7.3
2022-11-21T15:05:24.707Z,7.2
2022-11-21T15:11:14.362Z,7.3
2022-11-21T15:13:15.219Z,7.2
2022-11-21T15:15:23.703Z,7.1
2022-11-21T15:17:14.297Z,7.1
2022-11-21T15:19:10.474Z,7.2
2022-11-21T15:23:28.614Z,7.2
2022-11-21T15:25:16.867Z,7.2
2022-11-21T15:27:23.569Z,7.2
2022-11-21T15:29:19.017Z,7.1
2022-11-21T15:31:17.069Z,7.1
2022-11-21T15:33:09.892Z,7.1
2022-11-21T15:35:31.815Z,7.1
2022-11-21T15:37:14.344Z,7.1
2022-11-21T15:39:18.303Z,7.0
2022-11-21T15:43:08.646Z,7.0
2022-11-21T15:45:21.361Z,7.0
2022-11-21T15:49:31.450Z,7.0
2022-11-21T15:51:04.949Z,6.9
2022-11-21T15:53:04.832Z,6.9
2022-11-21T15:55:12.842Z,6.9
2022-11-21T15:57:04.506Z,7.0
2022-11-21T15:59:03.880Z,6.9
2022-11-21T16:01:03.775Z,7.0
2022-11-21T16:05:02.825Z,7.0
2022-11-21T16:07:02.439Z,7.0
2022-11-21T16:09:03.077Z,7.0
2022-11-21T16:11:01.544Z,7.0
2022-11-21T16:13:01.287Z,7.0
2022-11-21T16:15:00.903Z,7.0
2022-11-21T16:17:00.458Z,7.0
2022-11-21T16:19:00.733Z,7.0
2022-11-21T16:21:09.996Z,6.9
2022-11-21T16:23:00.608Z,6.9
2022-11-21T16:26:58.852Z,7.0
2022-11-21T16:28:59.874Z,7.0
2022-11-21T16:30:58.845Z,6.9
2022-11-21T16:33:00.672Z,7.0
2022-11-21T16:34:57.391Z,6.9
2022-11-21T16:36:56.974Z,6.9
2022-11-21T16:39:00.506Z,6.9
2022-11-21T16:40:59.081Z,6.9
2022-11-21T16:43:07.283Z,6.9
2022-11-21T16:44:56.122Z,6.9
2022-11-21T16:46:55.752Z,6.8
2022-11-21T16:50:54.682Z,6.9
2022-11-21T16:52:54.136Z,6.9
2022-11-21T16:54:53.802Z,6.8
2022-11-21T16:56:53.532Z,6.8
2022-11-21T16:58:53.119Z,6.8
2022-11-21T17:00:52.907Z,6.8
2022-11-21T17:02:53.368Z,6.8
2022-11-21T17:04:52.077Z,6.8
2022-11-21T17:08:51.434Z,6.8
2022-11-21T17:10:52.094Z,6.7
2022-11-21T17:12:51.067Z,6.7
2022-11-21T17:14:50.922Z,6.6
2022-11-21T17:16:50.748Z,6.7
2022-11-21T17:18:51.736Z,6.7
2022-11-21T17:20:49.467Z,6.7
2022-11-21T17:22:49.050Z,6.7
2022-11-21T17:26:48.502Z,6.7
2022-11-21T17:28:52.014Z,6.6
2022-11-21T17:30:47.715Z,6.6
2022-11-21T17:32:47.741Z,6.6
2022-11-21T17:34:47.027Z,6.6
2022-11-21T17:36:46.953Z,6.5
2022-11-21T17:38:47.194Z,6.5
2022-11-21T17:40:46.451Z,6.4
2022-11-21T17:42:47.103Z,6.4
2022-11-21T17:44:45.371Z,6.4
2022-11-21T17:46:44.987Z,6.3
2022-11-21T17:48:54.238Z,6.4
2022-11-21T17:50:44.225Z,6.4
2022-11-21T17:52:46.965Z,6.4
2022-11-21T17:54:43.602Z,6.4
2022-11-21T17:56:46.585Z,6.4
2022-11-21T17:58:43.208Z,6.4
2022-11-21T18:00:42.595Z,6.4
2022-11-21T18:02:42.579Z,6.4
2022-11-21T18:04:42.375Z,6.4
2022-11-21T18:06:41.914Z,6.4
2022-11-21T18:08:42.736Z,6.4
2022-11-21T18:10:43.369Z,6.5
2022-11-21T18:12:40.474Z,6.5
2022-11-21T18:16:42.741Z,6.5
2022-11-21T18:18:39.932Z,6.4
2022-11-21T18:20:39.053Z,6.4
2022-11-21T18:22:38.759Z,6.5
2022-11-21T18:24:38.347Z,6.5
2022-11-21T18:26:38.847Z,6.5
2022-11-21T18:32:37.522Z,6.4
2022-11-21T18:36:38.093Z,6.5
2022-11-21T18:38:49.289Z,6.5
2022-11-21T18:40:35.572Z,6.5
2022-11-21T18:42:36.014Z,6.5
2022-11-21T18:44:34.998Z,6.6
2022-11-21T18:46:36.454Z,6.5
2022-11-21T18:49:00.702Z,6.5
2022-11-21T18:50:34.047Z,6.5
2022-11-21T18:52:34.235Z,6.5
2022-11-21T18:54:33.469Z,6.5
2022-11-21T18:56:34.217Z,6.4
2022-11-21T18:58:33.882Z,6.5
2022-11-21T19:00:32.983Z,6.5
2022-11-21T19:02:31.724Z,6.4
2022-11-21T19:04:31.361Z,6.5
2022-11-21T19:08:30.835Z,6.5
2022-11-21T19:10:42.218Z,6.5
2022-11-21T19:12:33.875Z,6.5
2022-11-21T19:14:30.021Z,6.4
2022-11-21T19:16:30.396Z,6.5
2022-11-21T19:18:34.120Z,6.5
2022-11-21T19:20:28.707Z,6.5
2022-11-21T19:22:28.584Z,6.4
2022-11-21T19:24:28.285Z,6.5
2022-11-21T19:26:30.102Z,6.4
2022-11-21T19:28:28.618Z,6.4
2022-11-21T19:30:28.354Z,6.3
2022-11-21T19:32:26.451Z,6.4
2022-11-21T19:34:26.306Z,6.4
2022-11-21T19:36:25.775Z,6.4
2022-11-21T19:38:25.621Z,6.3
2022-11-21T19:40:34.799Z,6.4
2022-11-21T19:42:24.695Z,6.3
2022-11-21T19:44:24.317Z,6.4
2022-11-21T19:46:25.883Z,6.3
2022-11-21T19:48:24.224Z,6.3
2022-11-21T19:52:27.835Z,6.3
2022-11-21T19:56:24.066Z,6.3
2022-11-21T19:58:24.055Z,6.3
2022-11-21T20:00:24.289Z,6.3
2022-11-21T20:02:21.235Z,6.3
2022-11-21T20:04:20.978Z,6.3
2022-11-21T20:06:22.434Z,6.3
2022-11-21T20:08:20.163Z,6.2
2022-11-21T20:10:19.780Z,6.3
2022-11-21T20:14:22.295Z,6.3
2022-11-21T20:16:21.189Z,6.3
2022-11-21T20:18:18.402Z,6.2
2022-11-21T20:20:18.939Z,6.3
2022-11-21T20:22:17.761Z,6.3
2022-11-21T20:24:17.457Z,6.2
2022-11-21T20:28:17.276Z,6.2
2022-11-21T20:30:16.587Z,6.2
2022-11-21T20:34:16.104Z,6.2
2022-11-21T20:36:18.435Z,6.2
2022-11-21T20:38:17.897Z,6.2
2022-11-21T20:40:15.381Z,6.1
2022-11-21T20:42:14.867Z,6.2
2022-11-21T20:45:48.101Z,6.2
2022-11-21T20:46:18.849Z,6.1
2022-11-21T20:48:18.780Z,6.1
2022-11-21T20:50:21.556Z,6.1
2022-11-21T20:54:12.229Z,6.1
2022-11-21T20:56:12.332Z,6.2
2022-11-21T20:58:12.667Z,6.1
2022-11-21T21:00:12.451Z,6.1
2022-11-21T21:02:12.691Z,6.2
2022-11-21T21:04:11.159Z,6.1
2022-11-21T21:08:10.343Z,6.1
2022-11-21T21:12:09.225Z,6.1
2022-11-21T21:14:08.876Z,6.1
2022-11-21T21:16:12.647Z,6.1
2022-11-21T21:18:08.108Z,6.2
2022-11-21T21:22:08.130Z,6.2
2022-11-21T21:24:10.293Z,6.2
2022-11-21T21:26:08.678Z,6.2
2022-11-21T21:28:06.389Z,6.2
2022-11-21T21:30:06.852Z,6.2
2022-11-21T21:32:05.832Z,6.2
2022-11-21T21:34:05.856Z,6.1
2022-11-21T21:38:07.672Z,6.2
2022-11-21T21:42:04.070Z,6.2
2022-11-21T21:44:03.730Z,6.2
2022-11-21T21:46:04.400Z,6.1
2022-11-21T21:50:03.356Z,6.2
2022-11-21T21:52:02.263Z,6.2
2022-11-21T21:54:03.165Z,6.1
2022-11-21T21:56:02.330Z,6.1
2022-11-21T21:58:01.410Z,6.2
2022-11-21T22:00:01.281Z,6.1
2022-11-21T22:02:00.732Z,6.1
2022-11-21T22:04:01.920Z,6.1
2022-11-21T22:06:01.733Z,6.1
2022-11-21T22:07:59.641Z,6.1
2022-11-21T22:14:01.029Z,5.8
2022-11-21T22:15:59.416Z,5.8
2022-11-21T22:17:57.684Z,5.7
2022-11-21T22:19:57.309Z,5.7
2022-11-21T22:21:57.015Z,5.6
2022-11-21T22:27:56.312Z,5.6
2022-11-21T22:31:55.428Z,5.4
2022-11-21T22:33:54.693Z,5.4
2022-11-21T22:35:58.988Z,5.3
2022-11-21T22:39:53.711Z,5.3
2022-11-21T22:41:58.409Z,5.3
2022-11-21T22:43:54.672Z,5.3
2022-11-21T22:45:52.643Z,5.3
2022-11-21T22:47:52.221Z,5.3
2022-11-21T22:49:52.314Z,5.2
2022-11-21T22:51:52.099Z,5.2
2022-11-21T22:53:52.291Z,5.3
2022-11-21T22:55:58.633Z,5.3
2022-11-21T22:57:50.400Z,5.3
2022-11-21T22:59:49.969Z,5.3
2022-11-21T23:01:49.657Z,5.2
2022-11-21T23:03:49.918Z,5.2
2022-11-21T23:05:57.682Z,5.4
2022-11-21T23:07:48.738Z,5.2
2022-11-21T23:09:48.950Z,5.3
2022-11-21T23:11:47.863Z,5.3
2022-11-21T23:13:47.749Z,5.3
2022-11-21T23:15:47.549Z,5.3
2022-11-21T23:17:52.469Z,5.3
2022-11-21T23:19:46.180Z,5.2
2022-11-21T23:21:45.818Z,5.2
2022-11-21T23:23:45.478Z,5.3
2022-11-21T23:25:45.510Z,5.2
2022-11-21T23:27:45.067Z,5.2
2022-11-21T23:29:44.452Z,5.2
2022-11-21T23:31:43.969Z,5.1
2022-11-21T23:33:43.822Z,5.2
2022-11-21T23:35:45.424Z,5.1
2022-11-21T23:37:43.164Z,5.1
2022-11-21T23:39:43.227Z,5.1
2022-11-21T23:41:42.506Z,5.2
2022-11-21T23:43:41.710Z,5.2
2022-11-21T23:45:41.845Z,5.2
2022-11-21T23:47:40.885Z,5.2
2022-11-21T23:49:41.470Z,5.2
2022-11-21T23:51:40.166Z,5.0
2022-11-21T23:53:39.802Z,5.1
2022-11-21T23:55:39.414Z,5.1
2022-11-21T23:57:39.283Z,5.1
2022-11-21T23:59:38.774Z,5.1
